This is the latest recevied weather packets stored in our database for station/object SP3ZBZ-13. If no packets are shown the sender has not sent any weather packets the latest 10 day(s).
| Time | Temp. | Humidity | Pressure | Rain* | Wind** | Luminosity | Snow |
|---|---|---|---|---|---|---|---|
| 1777633064 | 20.56° C | 36% | 1022.7 hPa | - | - | 681 W/m² | - |
| 1777632163 | 20.56° C | 36% | 1022.8 hPa | - | - | 679 W/m² | - |
| 1777631262 | 19.44° C | 40% | 1022.8 hPa | - | - | 673 W/m² | - |
| 1777630361 | 18.89° C | 40% | 1022.9 hPa | - | - | 669 W/m² | - |
| 1777629460 | 18.89° C | 42% | 1023 hPa | - | - | 652 W/m² | - |
| 1777628559 | 17.78° C | 42% | 1023.1 hPa | - | - | 633 W/m² | - |
| 1777627658 | 17.78° C | 42% | 1023.2 hPa | - | - | 618 W/m² | - |
| 1777626757 | 17.22° C | 44% | 1023.4 hPa | - | - | 125 W/m² | - |
| 1777625856 | 16.67° C | 45% | 1023.4 hPa | - | - | 587 W/m² | - |
| 1777624955 | 16.11° C | 46% | 1023.4 hPa | - | - | 562 W/m² | - |
| 1777624054 | 15.56° C | 48% | 1023.5 hPa | - | - | 532 W/m² | - |
| 1777623154 | 15.56° C | 51% | 1023.5 hPa | - | - | 504 W/m² | - |
| 1777622253 | 14.44° C | 50% | 1023.5 hPa | - | - | 475 W/m² | - |
| 1777621352 | 13.89° C | 53% | 1023.6 hPa | - | - | 442 W/m² | - |
| 1777620451 | 12.78° C | 57% | 1023.6 hPa | - | - | 405 W/m² | - |
| 1777619550 | 12.78° C | 58% | 1023.6 hPa | - | - | 367 W/m² | - |
| 1777618649 | 12.22° C | 54% | 1023.6 hPa | - | - | 331 W/m² | - |
| 1777617748 | 11.67° C | 57% | 1023.6 hPa | - | - | 283 W/m² | - |
| 1777616847 | 11.11° C | 60% | 1023.6 hPa | - | - | 243 W/m² | - |
| 1777615946 | 10.56° C | 61% | 1023.6 hPa | - | - | 208 W/m² | - |
| 1777615045 | 10° C | 61% | 1023.5 hPa | - | - | 172 W/m² | - |
| 1777614145 | 10.56° C | 61% | 1023.5 hPa | - | - | 137 W/m² | - |
| 1777613243 | 11.67° C | 57% | 1023.6 hPa | - | - | 104 W/m² | - |
| 1777612343 | 7.78° C | 69% | 1023.5 hPa | - | - | 76 W/m² | - |
| 1777611442 | 5.56° C | 75% | 1023.5 hPa | - | - | 59 W/m² | - |
* Rain since midnight (hover to see other rain measurements)
** Current wind speed in m/s (hover to see current wind gust speed)